Time,TemperatureF,DewpointF,PressureIn,WindDirection,WindDirectionDegrees,WindSpeedMPH,WindSpeedGustMPH,Humidity,HourlyPrecipIn,Conditions,Clouds,dailyrainin,SoftwareType,DateUTC
2014-01-14 00:00:00,44.0,-99.9,-100.00,North,-999,0.0,1.0,-999,-99.99,,,-99.99,,2014-01-14 08:00:00,
2014-01-14 00:35:00,44.0,-99.9,-100.00,ESE,116,1.0,1.0,-999,-99.99,,,-99.99,,2014-01-14 08:35:00,
2014-01-14 00:53:00,44.0,-99.9,-100.00,North,-999,0.0,1.0,-999,-99.99,,,-99.99,,2014-01-14 08:53:00,
2014-01-14 01:15:00,42.0,-99.9,-100.00,ESE,107,2.0,4.0,-999,-99.99,,,-99.99,,2014-01-14 09:15:00,
2014-01-14 01:28:00,44.0,-99.9,-100.00,ESE,116,1.0,1.0,-999,-99.99,,,-99.99,,2014-01-14 09:28:00,
2014-01-14 01:45:00,43.0,-99.9,-100.00,East,97,1.0,3.0,-999,-99.99,,,-99.99,,2014-01-14 09:45:00,
2014-01-14 01:57:00,44.0,-99.9,-100.00,North,-999,0.0,2.0,-999,-99.99,,,-99.99,,2014-01-14 09:57:00,
2014-01-14 02:10:00,43.0,-99.9,-100.00,North,-999,0.0,3.0,-999,-99.99,,,-99.99,,2014-01-14 10:10:00,
2014-01-14 02:26:00,43.0,-99.9,-100.00,East,97,1.0,3.0,-999,-99.99,,,-99.99,,2014-01-14 10:26:00,
2014-01-14 02:37:00,43.0,-99.9,-100.00,East,97,1.0,3.0,-999,-99.99,,,-99.99,,2014-01-14 10:37:00,
2014-01-14 02:57:00,43.0,-99.9,-100.00,North,-999,0.0,3.0,-999,-99.99,,,-99.99,,2014-01-14 10:57:00,
2014-01-14 03:07:00,43.0,-99.9,-100.00,North,-999,0.0,3.0,-999,-99.99,,,-99.99,,2014-01-14 11:07:00,
2014-01-14 03:30:00,37.0,-99.9,-100.00,North,-999,0.0,2.0,-999,-99.99,,,-99.99,,2014-01-14 11:30:00,
2014-01-14 03:52:00,39.0,-99.9,-100.00,North,-999,0.0,2.0,-999,-99.99,,,-99.99,,2014-01-14 11:52:00,
2014-01-14 04:00:00,36.0,-99.9,-100.00,ESE,117,3.0,4.0,-999,-99.99,,,-99.99,,2014-01-14 12:00:00,
2014-01-14 04:11:00,37.0,-99.9,-100.00,North,-999,0.0,2.0,-999,-99.99,,,-99.99,,2014-01-14 12:11:00,
2014-01-14 04:22:00,37.0,-99.9,-100.00,North,-999,0.0,2.0,-999,-99.99,,,-99.99,,2014-01-14 12:22:00,
2014-01-14 04:52:00,36.0,-99.9,-100.00,ESE,117,3.0,4.0,-999,-99.99,,,-99.99,,2014-01-14 12:52:00,
2014-01-14 05:10:00,36.0,-99.9,-100.00,SE,126,5.0,5.0,-999,-99.99,,,-99.99,,2014-01-14 13:10:00,
2014-01-14 05:52:00,36.0,-99.9,-100.00,SE,126,5.0,5.0,-999,-99.99,,,-99.99,,2014-01-14 13:52:00,
2014-01-14 06:00:00,35.0,-99.9,-100.00,East,86,3.0,6.0,-999,-99.99,,,-99.99,,2014-01-14 14:00:00,
2014-01-14 06:02:00,36.0,-99.9,-100.00,SE,126,5.0,5.0,-999,-99.99,,,-99.99,,2014-01-14 14:02:00,
2014-01-14 06:22:00,35.0,-99.9,-100.00,ESE,105,2.0,4.0,-999,-99.99,,,-99.99,,2014-01-14 14:22:00,
2014-01-14 06:32:00,35.0,-99.9,-100.00,ESE,105,2.0,4.0,-999,-99.99,,,-99.99,,2014-01-14 14:32:00,
2014-01-14 06:52:00,35.0,-99.9,-100.00,East,86,3.0,6.0,-999,-99.99,,,-99.99,,2014-01-14 14:52:00,
2014-01-14 07:43:00,35.0,-99.9,-100.00,ESE,116,4.0,5.0,-999,-99.99,,,-99.99,,2014-01-14 15:43:00,
2014-01-14 07:53:00,35.0,-99.9,-100.00,ESE,116,4.0,5.0,-999,-99.99,,,-99.99,,2014-01-14 15:53:00,
2014-01-14 08:53:00,33.0,-99.9,-100.00,ESE,110,4.0,5.0,-999,-99.99,,,-99.99,,2014-01-14 16:53:00,
2014-01-14 09:12:00,34.0,-99.9,-100.00,ESE,109,3.0,5.0,-999,-99.99,,,-99.99,,2014-01-14 17:12:00,
2014-01-14 09:22:00,33.0,-99.9,-100.00,ESE,123,5.0,6.0,-999,-99.99,,,-99.99,,2014-01-14 17:22:00,
2014-01-14 09:33:00,33.0,-99.9,-100.00,ESE,123,5.0,6.0,-999,-99.99,,,-99.99,,2014-01-14 17:33:00,
2014-01-14 09:43:00,33.0,-99.9,-100.00,ESE,123,5.0,6.0,-999,-99.99,,,-99.99,,2014-01-14 17:43:00,
2014-01-14 09:53:00,36.0,-99.9,-100.00,East,96,5.0,5.0,-999,-99.99,,,-99.99,,2014-01-14 17:53:00,
2014-01-14 10:00:00,38.0,-99.9,-100.00,ESE,119,2.0,5.0,-999,-99.99,,,-99.99,,2014-01-14 18:00:00,
2014-01-14 10:02:00,36.0,-99.9,-100.00,East,96,5.0,5.0,-999,-99.99,,,-99.99,,2014-01-14 18:02:00,
2014-01-14 10:12:00,36.0,-99.9,-100.00,East,96,5.0,5.0,-999,-99.99,,,-99.99,,2014-01-14 18:12:00,
2014-01-14 10:52:00,38.0,-99.9,-100.00,ESE,119,2.0,5.0,-999,-99.99,,,-99.99,,2014-01-14 18:52:00,
2014-01-14 11:22:00,44.0,-99.9,-100.00,ESE,109,5.0,6.0,-999,-99.99,,,-99.99,,2014-01-14 19:22:00,
2014-01-14 11:32:00,44.0,-99.9,-100.00,ESE,109,5.0,6.0,-999,-99.99,,,-99.99,,2014-01-14 19:32:00,
2014-01-14 11:52:00,49.0,-99.9,-100.00,SSW,210,1.0,4.0,-999,-99.99,,,-99.99,,2014-01-14 19:52:00,
2014-01-14 12:11:00,49.0,-99.9,-100.00,SSE,159,1.0,5.0,-999,-99.99,,,-99.99,,2014-01-14 20:11:00,
2014-01-14 12:22:00,49.0,-99.9,-100.00,SSE,159,1.0,5.0,-999,-99.99,,,-99.99,,2014-01-14 20:22:00,
2014-01-14 12:52:00,53.0,-99.9,-100.00,SSE,151,1.0,2.0,-999,-99.99,,,-99.99,,2014-01-14 20:52:00,
2014-01-14 13:00:00,54.0,-99.9,-100.00,SW,234,1.0,3.0,-999,-99.99,,,-99.99,,2014-01-14 21:00:00,
2014-01-14 13:02:00,53.0,-99.9,-100.00,SSE,151,1.0,2.0,-999,-99.99,,,-99.99,,2014-01-14 21:02:00,
2014-01-14 13:53:00,54.0,-99.9,-100.00,SW,234,1.0,3.0,-999,-99.99,,,-99.99,,2014-01-14 21:53:00,
2014-01-14 14:52:00,53.0,-99.9,-100.00,ESE,120,3.0,3.0,-999,-99.99,,,-99.99,,2014-01-14 22:52:00,
2014-01-14 15:00:00,46.0,-99.9,-100.00,SE,129,3.0,4.0,-999,-99.99,,,-99.99,,2014-01-14 23:00:00,
2014-01-14 15:12:00,53.0,-99.9,-100.00,SE,140,2.0,2.0,-999,-99.99,,,-99.99,,2014-01-14 23:12:00,
2014-01-14 15:22:00,53.0,-99.9,-100.00,SE,140,2.0,2.0,-999,-99.99,,,-99.99,,2014-01-14 23:22:00,
2014-01-14 15:42:00,50.0,-99.9,-100.00,SE,140,3.0,3.0,-999,-99.99,,,-99.99,,2014-01-14 23:42:00,
2014-01-14 15:53:00,46.0,-99.9,-100.00,SE,129,3.0,4.0,-999,-99.99,,,-99.99,,2014-01-14 23:53:00,
2014-01-14 17:00:00,42.0,-99.9,-100.00,ESE,119,4.0,6.0,-999,-99.99,,,-99.99,,2014-01-15 01:00:00,
2014-01-14 17:53:00,42.0,-99.9,-100.00,ESE,119,4.0,6.0,-999,-99.99,,,-99.99,,2014-01-15 01:53:00,
2014-01-14 18:00:00,40.0,-99.9,-100.00,East,98,2.0,6.0,-999,-99.99,,,-99.99,,2014-01-15 02:00:00,
2014-01-14 18:42:00,41.0,-99.9,-100.00,ESE,115,4.0,6.0,-999,-99.99,,,-99.99,,2014-01-15 02:42:00,
2014-01-14 18:53:00,40.0,-99.9,-100.00,East,98,2.0,6.0,-999,-99.99,,,-99.99,,2014-01-15 02:53:00,
2014-01-14 19:22:00,40.0,-99.9,-100.00,ESE,118,6.0,8.0,-999,-99.99,,,-99.99,,2014-01-15 03:22:00,
2014-01-14 19:43:00,39.0,-99.9,-100.00,ESE,116,5.0,7.0,-999,-99.99,,,-99.99,,2014-01-15 03:43:00,
2014-01-14 19:53:00,38.0,-99.9,-100.00,ESE,109,5.0,7.0,-999,-99.99,,,-99.99,,2014-01-15 03:53:00,
2014-01-14 20:00:00,37.0,-99.9,-100.00,East,93,3.0,8.0,-999,-99.99,,,-99.99,,2014-01-15 04:00:00,
2014-01-14 20:03:00,38.0,-99.9,-100.00,ESE,109,5.0,7.0,-999,-99.99,,,-99.99,,2014-01-15 04:03:00,
2014-01-14 20:42:00,37.0,-99.9,-100.00,ESE,119,7.0,8.0,-999,-99.99,,,-99.99,,2014-01-15 04:42:00,
2014-01-14 20:53:00,37.0,-99.9,-100.00,East,93,3.0,8.0,-999,-99.99,,,-99.99,,2014-01-15 04:53:00,
2014-01-14 21:00:00,36.0,-99.9,-100.00,East,101,7.0,10.0,-999,-99.99,,,-99.99,,2014-01-15 05:00:00,
2014-01-14 21:40:00,35.0,-99.9,-100.00,East,99,4.0,6.0,-999,-99.99,,,-99.99,,2014-01-15 05:40:00,
2014-01-14 21:52:00,36.0,-99.9,-100.00,East,101,7.0,10.0,-999,-99.99,,,-99.99,,2014-01-15 05:52:00,
2014-01-14 22:22:00,35.0,-99.9,-100.00,East,99,4.0,6.0,-999,-99.99,,,-99.99,,2014-01-15 06:22:00,
2014-01-14 22:32:00,35.0,-99.9,-100.00,East,99,4.0,6.0,-999,-99.99,,,-99.99,,2014-01-15 06:32:00,
2014-01-14 22:52:00,36.0,-99.9,-100.00,North,-999,0.0,6.0,-999,-99.99,,,-99.99,,2014-01-15 06:52:00,
2014-01-14 23:00:00,35.0,-99.9,-100.00,ESE,106,8.0,8.0,-999,-99.99,,,-99.99,,2014-01-15 07:00:00,
2014-01-14 23:02:00,36.0,-99.9,-100.00,North,-999,0.0,6.0,-999,-99.99,,,-99.99,,2014-01-15 07:02:00,
2014-01-14 23:22:00,36.0,-99.9,-100.00,ESE,116,1.0,8.0,-999,-99.99,,,-99.99,,2014-01-15 07:22:00,
2014-01-14 23:32:00,36.0,-99.9,-100.00,ESE,116,1.0,8.0,-999,-99.99,,,-99.99,,2014-01-15 07:32:00,
2014-01-14 23:52:00,35.0,-99.9,-100.00,ESE,106,8.0,8.0,-999,-99.99,,,-99.99,,2014-01-15 07:52:00,